createdAt,value
2019-04-25T00:02:27.084Z,99960.49
2019-04-25T00:05:36.296Z,99966.16
2019-04-25T00:08:53.496Z,99991.99
2019-04-25T00:12:02.246Z,99995.17
2019-04-25T00:15:19.179Z,100006.11
2019-04-25T00:18:36.154Z,100035.58
2019-04-25T00:22:01.991Z,100043.30
2019-04-25T00:25:23.121Z,100063.83
2019-04-25T00:28:31.569Z,100075.58
2019-04-25T00:31:39.036Z,100102.11
2019-04-25T00:34:46.639Z,100109.23
2019-04-25T00:37:53.848Z,100096.38
2019-04-25T00:41:01.724Z,100087.16
2019-04-25T00:44:18.503Z,100073.03
2019-04-25T00:47:35.264Z,100082.42
2019-04-25T00:50:43.350Z,100082.91
2019-04-25T00:54:02.411Z,100070.09
2019-04-25T00:57:09.968Z,100057.41
2019-04-25T01:00:34.436Z,100060.45
2019-04-25T01:03:59.218Z,100058.22
2019-04-25T01:07:16.120Z,100081.70
2019-04-25T01:10:32.819Z,100079.81
2019-04-25T01:13:40.132Z,100066.55
2019-04-25T01:16:56.898Z,100047.39
2019-04-25T01:20:05.172Z,100036.22
2019-04-25T01:23:11.836Z,100031.17
2019-04-25T01:26:19.252Z,100020.89
2019-04-25T01:29:26.757Z,100036.86
2019-04-25T01:32:44.612Z,100057.92
2019-04-25T01:36:10.612Z,100070.80
2019-04-25T01:39:55.326Z,100045.83
2019-04-25T01:43:33.162Z,100038.16
2019-04-25T01:46:44.200Z,100050.19
2019-04-25T01:49:52.258Z,100029.06
2019-04-25T01:53:00.190Z,100045.28
2019-04-25T01:56:07.919Z,100051.88
2019-04-25T01:59:15.229Z,100055.41
2019-04-25T02:02:24.072Z,100060.25
2019-04-25T02:05:31.983Z,100075.76
2019-04-25T02:08:39.300Z,100092.20
2019-04-25T02:11:54.398Z,100108.62
2019-04-25T02:15:04.006Z,100108.70
2019-04-25T02:18:11.036Z,100131.29
2019-04-25T02:21:18.412Z,100144.21
2019-04-25T02:24:25.714Z,100154.93
2019-04-25T02:27:34.247Z,100178.16
2019-04-25T02:30:41.533Z,100181.53
2019-04-25T02:33:48.854Z,100181.68
2019-04-25T02:37:00.694Z,100189.67
2019-04-25T02:40:08.544Z,100190.28
2019-04-25T02:43:25.643Z,100199.95
2019-04-25T02:47:16.797Z,100202.77
2019-04-25T02:50:39.174Z,100208.22
2019-04-25T02:54:09.478Z,100227.80
2019-04-25T02:57:26.255Z,100234.61
2019-04-25T03:00:52.579Z,100221.61
2019-04-25T03:04:04.884Z,100211.38
2019-04-25T03:07:20.225Z,100218.72
2019-04-25T03:10:36.984Z,100229.86
2019-04-25T03:13:54.618Z,100219.12
2019-04-25T03:17:05.085Z,100233.04
2019-04-25T03:20:30.698Z,100229.06
2019-04-25T03:23:55.680Z,100234.30
2019-04-25T03:27:04.896Z,100227.98
2019-04-25T03:30:16.635Z,100228.39
2019-04-25T03:33:31.555Z,100225.14
2019-04-25T03:36:47.984Z,100220.47
2019-04-25T03:39:55.224Z,100216.34
2019-04-25T03:43:04.740Z,100212.23
2019-04-25T03:46:20.825Z,100216.63
2019-04-25T03:49:38.061Z,100226.26
2019-04-25T03:52:44.572Z,100225.52
2019-04-25T03:55:51.911Z,100234.69
2019-04-25T03:58:59.709Z,100232.33
2019-04-25T04:02:23.503Z,100240.45
2019-04-25T04:05:30.995Z,100253.42
2019-04-25T04:08:47.645Z,100256.02
2019-04-25T04:11:54.976Z,100259.36
2019-04-25T04:15:14.357Z,100263.23
2019-04-25T04:18:40.075Z,100267.78
2019-04-25T04:22:09.057Z,100270.94
2019-04-25T04:25:16.791Z,100285.31
2019-04-25T04:28:33.750Z,100285.63
2019-04-25T04:31:41.084Z,100290.25
2019-04-25T04:34:48.219Z,100295.77
2019-04-25T04:37:55.524Z,100303.70
2019-04-25T04:41:03.955Z,100304.84
2019-04-25T04:44:20.562Z,100324.95
2019-04-25T04:47:37.287Z,100325.75
2019-04-25T04:50:44.505Z,100327.06
2019-04-25T04:53:53.571Z,100335.11
2019-04-25T04:57:25.479Z,100332.97
2019-04-25T05:00:29.172Z,100340.45
2019-04-25T05:03:54.219Z,100343.44
2019-04-25T05:07:07.091Z,100351.39
2019-04-25T05:10:34.461Z,100349.61
2019-04-25T05:13:51.257Z,100347.85
2019-04-25T05:17:07.787Z,100355.72
2019-04-25T05:20:17.311Z,100371.19
2019-04-25T05:23:34.390Z,100362.03
2019-04-25T05:26:41.645Z,100370.75
2019-04-25T05:29:48.920Z,100392.33
2019-04-25T05:32:55.078Z,100391.83
2019-04-25T05:36:11.934Z,100397.60
2019-04-25T05:39:36.565Z,100408.59
2019-04-25T05:42:49.520Z,100421.59
2019-04-25T05:45:57.293Z,100430.86
2019-04-25T05:49:05.233Z,100438.72
2019-04-25T05:52:11.265Z,100436.77
2019-04-25T05:55:19.893Z,100441.48
2019-04-25T05:58:27.023Z,100445.73
2019-04-25T06:01:35.932Z,100453.98
2019-04-25T06:04:43.632Z,100458.27
2019-04-25T06:07:50.952Z,100463.16
2019-04-25T06:11:18.063Z,100455.16
2019-04-25T06:14:26.244Z,100460.33
2019-04-25T06:18:00.781Z,100462.55
2019-04-25T06:21:28.054Z,100480.19
2019-04-25T06:24:54.286Z,100478.83
2019-04-25T06:28:03.794Z,100479.52
2019-04-25T06:31:11.116Z,100483.55
2019-04-25T06:34:19.867Z,100481.16
2019-04-25T06:37:27.069Z,100488.69
2019-04-25T06:40:34.592Z,100487.81
2019-04-25T06:43:44.221Z,100489.81
2019-04-25T06:47:11.226Z,100496.03
2019-04-25T06:50:36.349Z,100495.44
2019-04-25T06:53:43.748Z,100493.72
2019-04-25T06:56:51.065Z,100496.39
2019-04-25T06:59:58.277Z,100495.05
2019-04-25T07:03:05.585Z,100494.45
2019-04-25T07:06:12.976Z,100490.64
2019-04-25T07:09:24.383Z,100492.16
2019-04-25T07:12:31.756Z,100497.63
2019-04-25T07:15:39.486Z,100504.08
2019-04-25T07:18:46.724Z,100504.55
2019-04-25T07:21:54.174Z,100507.85
2019-04-25T07:25:01.339Z,100505.45
2019-04-25T07:28:53.898Z,100505.09
2019-04-25T07:32:18.934Z,100506.52
2019-04-25T07:35:26.752Z,100493.24
2019-04-25T07:38:34.935Z,100495.02
2019-04-25T07:41:42.209Z,100492.02
2019-04-25T07:44:52.797Z,100485.88
2019-04-25T07:47:58.416Z,100483.55
2019-04-25T07:51:05.733Z,100485.41
2019-04-25T07:54:14.283Z,100496.34
2019-04-25T07:57:23.436Z,100503.03
2019-04-25T08:00:31.357Z,100505.61
2019-04-25T08:03:47.949Z,100496.81
2019-04-25T08:06:54.863Z,100507.50
2019-04-25T08:10:04.016Z,100500.90
2019-04-25T08:13:21.491Z,100502.02
2019-04-25T08:16:30.993Z,100500.23
2019-04-25T08:19:39.297Z,100509.28
2019-04-25T08:22:56.235Z,100508.39
2019-04-25T08:25:55.460Z,100501.06
2019-04-25T08:29:03.643Z,100502.98
2019-04-25T08:32:10.956Z,100505.13
2019-04-25T08:35:18.157Z,100504.39
2019-04-25T08:38:25.385Z,100508.82
2019-04-25T08:41:34.855Z,100515.64
2019-04-25T08:44:39.797Z,100516.02
2019-04-25T08:47:47.113Z,100512.31
2019-04-25T08:51:03.670Z,100515.13
2019-04-25T08:54:28.785Z,100511.37
2019-04-25T08:57:54.066Z,100504.64
2019-04-25T09:01:20.199Z,100504.11
2019-04-25T09:04:40.162Z,100508.09
2019-04-25T09:07:47.353Z,100498.16
2019-04-25T09:10:54.592Z,100489.82
2019-04-25T09:14:00.136Z,100485.41
2019-04-25T09:17:07.342Z,100483.92
2019-04-25T09:20:15.037Z,100487.77
2019-04-25T09:23:23.650Z,100495.47
2019-04-25T09:26:29.920Z,100511.28
2019-04-25T09:29:47.424Z,100508.84
2019-04-25T09:32:54.682Z,100513.67
2019-04-25T09:36:01.926Z,100507.67
2019-04-25T09:39:29.192Z,100507.04
2019-04-25T09:42:59.319Z,100502.78
2019-04-25T09:46:24.619Z,100497.29
2019-04-25T09:49:35.264Z,100497.66
2019-04-25T09:52:44.383Z,100486.25
2019-04-25T09:55:57.459Z,100496.27
2019-04-25T09:59:10.507Z,100501.31
2019-04-25T10:02:17.806Z,100503.09
2019-04-25T10:05:34.657Z,100512.63
2019-04-25T10:08:51.472Z,100500.58
2019-04-25T10:12:09.877Z,100497.27
2019-04-25T10:15:49.305Z,100495.08
2019-04-25T10:18:56.141Z,100501.83
2019-04-25T10:22:03.555Z,100497.20
2019-04-25T10:25:20.292Z,100492.20
2019-04-25T10:28:27.960Z,100487.91
2019-04-25T10:31:35.258Z,100487.91
2019-04-25T10:34:44.851Z,100480.23
2019-04-25T10:37:53.334Z,100494.05
2019-04-25T10:41:00.479Z,100476.42
2019-04-25T10:44:08.176Z,100491.72
2019-04-25T10:47:15.292Z,100502.44
2019-04-25T10:50:23.862Z,100500.53
2019-04-25T10:53:31.147Z,100503.00
2019-04-25T10:56:39.215Z,100501.95
2019-04-25T11:00:02.497Z,100506.61
2019-04-25T11:02:58.327Z,100497.06
2019-04-25T11:06:26.496Z,100494.13
2019-04-25T11:09:34.378Z,100499.95
2019-04-25T11:12:42.821Z,100494.70
2019-04-25T11:15:50.619Z,100487.41
2019-04-25T11:19:08.559Z,100494.53
2019-04-25T11:22:25.278Z,100502.07
2019-04-25T11:25:34.080Z,100501.73
2019-04-25T11:28:51.027Z,100489.50
2019-04-25T11:32:08.211Z,100489.47
2019-04-25T11:35:27.817Z,100496.01
2019-04-25T11:39:09.615Z,100496.49
2019-04-25T11:42:17.011Z,100492.67
2019-04-25T11:45:24.435Z,100497.73
2019-04-25T11:48:31.654Z,100496.69
2019-04-25T11:51:38.963Z,100489.20
2019-04-25T11:54:55.832Z,100482.16
2019-04-25T11:58:14.146Z,100480.70
2019-04-25T12:01:31.400Z,100480.68
2019-04-25T12:04:48.956Z,100478.73
2019-04-25T12:07:56.611Z,100487.97
2019-04-25T12:11:05.821Z,100482.72
2019-04-25T12:14:23.578Z,100492.33
2019-04-25T12:17:41.007Z,100480.10
2019-04-25T12:20:48.743Z,100484.73
2019-04-25T12:23:55.264Z,100491.23
2019-04-25T12:27:04.165Z,100487.34
2019-04-25T12:30:11.740Z,100478.64
2019-04-25T12:33:28.258Z,100484.59
2019-04-25T12:36:35.671Z,100486.77
2019-04-25T12:39:53.808Z,100485.45
2019-04-25T12:43:13.740Z,100481.20
2019-04-25T12:46:36.999Z,100484.02
2019-04-25T12:49:46.608Z,100481.33
2019-04-25T12:52:56.039Z,100491.04
2019-04-25T12:56:04.378Z,100496.94
2019-04-25T12:59:21.091Z,100503.05
2019-04-25T13:02:28.431Z,100497.78
2019-04-25T13:05:45.139Z,100491.04
2019-04-25T13:09:03.713Z,100489.86
2019-04-25T13:12:23.246Z,100490.92
2019-04-25T13:15:30.990Z,100496.45
2019-04-25T13:18:47.926Z,100491.86
2019-04-25T13:22:05.440Z,100500.71
2019-04-25T13:25:14.906Z,100492.41
2019-04-25T13:28:54.096Z,100502.44
2019-04-25T13:32:27.000Z,100505.03
2019-04-25T13:36:02.073Z,100500.23
2019-04-25T13:39:20.728Z,100482.13
2019-04-25T13:42:37.627Z,100501.01
2019-04-25T13:45:54.660Z,100509.34
2019-04-25T13:49:02.192Z,100510.67
2019-04-25T13:52:10.449Z,100504.17
2019-04-25T13:55:18.073Z,100493.91
2019-04-25T13:58:26.637Z,100495.91
2019-04-25T14:01:34.203Z,100499.15
2019-04-25T14:04:41.707Z,100502.88
2019-04-25T14:07:49.567Z,100501.04
2019-04-25T14:11:06.698Z,100488.38
2019-04-25T14:14:24.642Z,100483.75
2019-04-25T14:17:49.943Z,100484.17
2019-04-25T14:21:03.535Z,100480.17
2019-04-25T14:24:28.122Z,100478.09
2019-04-25T14:27:43.423Z,100475.38
2019-04-25T14:30:51.099Z,100462.44
2019-04-25T14:34:08.585Z,100458.85
2019-04-25T14:37:28.184Z,100467.73
2019-04-25T14:40:44.175Z,100452.03
2019-04-25T14:44:01.299Z,100443.84
2019-04-25T14:47:18.274Z,100440.99
2019-04-25T14:50:36.139Z,100442.02
2019-04-25T14:53:43.734Z,100445.62
2019-04-25T14:57:10.835Z,100434.65
2019-04-25T15:00:35.856Z,100437.81
2019-04-25T15:03:41.401Z,100435.89
2019-04-25T15:06:48.632Z,100432.11
2019-04-25T15:09:56.075Z,100439.98
2019-04-25T15:13:04.436Z,100431.40
2019-04-25T15:16:12.012Z,100434.20
2019-04-25T15:19:18.721Z,100435.91
2019-04-25T15:22:26.710Z,100435.32
2019-04-25T15:25:34.010Z,100437.29
2019-04-25T15:28:41.218Z,100439.69
2019-04-25T15:31:58.826Z,100438.84
2019-04-25T15:35:09.060Z,100440.34
2019-04-25T15:38:22.240Z,100438.22
2019-04-25T15:42:01.624Z,100431.58
2019-04-25T15:45:28.585Z,100428.48
2019-04-25T15:48:35.671Z,100426.95
2019-04-25T15:51:42.971Z,100425.70
2019-04-25T15:55:06.968Z,100417.62
2019-04-25T15:58:07.989Z,100419.95
2019-04-25T16:01:14.528Z,100411.30
2019-04-25T16:04:31.356Z,100405.75
2019-04-25T16:07:48.182Z,100411.66
2019-04-25T16:11:05.145Z,100416.95
2019-04-25T16:14:21.948Z,100410.53
2019-04-25T16:17:39.051Z,100404.09
2019-04-25T16:20:46.306Z,100403.70
2019-04-25T16:23:54.083Z,100400.91
2019-04-25T16:27:01.367Z,100395.67
2019-04-25T16:30:09.568Z,100401.80
2019-04-25T16:33:16.853Z,100399.45
2019-04-25T16:36:24.155Z,100392.90
2019-04-25T16:39:33.131Z,100396.23
2019-04-25T16:42:40.434Z,100395.56
2019-04-25T16:45:47.747Z,100389.98
2019-04-25T16:48:55.142Z,100388.29
2019-04-25T16:52:02.387Z,100388.62
2019-04-25T16:55:10.226Z,100392.44
2019-04-25T16:58:17.479Z,100388.06
2019-04-25T17:01:24.810Z,100385.95
2019-04-25T17:04:33.095Z,100381.38
2019-04-25T17:07:49.776Z,100379.68
2019-04-25T17:11:07.174Z,100376.07
2019-04-25T17:14:42.853Z,100379.42
2019-04-25T17:18:03.958Z,100379.77
2019-04-25T17:21:11.788Z,100377.83
2019-04-25T17:24:19.172Z,100371.72
2019-04-25T17:27:37.080Z,100373.20
2019-04-25T17:30:47.047Z,100375.17
2019-04-25T17:34:04.595Z,100375.08
2019-04-25T17:37:21.467Z,100386.36
2019-04-25T17:40:31.308Z,100385.06
2019-04-25T17:43:48.736Z,100385.92
2019-04-25T17:47:05.813Z,100393.48
2019-04-25T17:50:14.537Z,100388.51
2019-04-25T17:53:32.931Z,100385.76
2019-04-25T17:56:49.731Z,100386.58
2019-04-25T18:00:09.902Z,100391.32
2019-04-25T18:03:17.658Z,100388.23
2019-04-25T18:06:25.089Z,100387.89
2019-04-25T18:09:32.591Z,100391.36
2019-04-25T18:12:40.116Z,100387.78
2019-04-25T18:16:06.401Z,100384.47
2019-04-25T18:19:25.185Z,100386.64
2019-04-25T18:22:57.292Z,100392.62
2019-04-25T18:26:21.399Z,100393.19
2019-04-25T18:29:48.832Z,100391.69
2019-04-25T18:33:12.470Z,100393.13
2019-04-25T18:37:03.678Z,100391.78
2019-04-25T18:40:27.517Z,100399.08
2019-04-25T18:43:55.240Z,100397.11
2019-04-25T18:47:15.432Z,100397.59
2019-04-25T18:50:25.212Z,100394.91
2019-04-25T18:53:59.795Z,100392.78
2019-04-25T18:57:33.745Z,100387.53
2019-04-25T19:00:48.198Z,100385.06
2019-04-25T19:04:20.471Z,100395.16
2019-04-25T19:07:26.711Z,100403.91
2019-04-25T19:10:43.500Z,100412.68
2019-04-25T19:13:51.692Z,100405.75
2019-04-25T19:16:58.938Z,100405.83
2019-04-25T19:20:06.531Z,100410.04
2019-04-25T19:23:14.030Z,100407.13
2019-04-25T19:26:31.081Z,100407.05
2019-04-25T19:29:47.735Z,100402.57
2019-04-25T19:32:54.926Z,100406.60
2019-04-25T19:36:11.862Z,100401.89
2019-04-25T19:39:20.725Z,100402.65
2019-04-25T19:42:44.554Z,100399.23
2019-04-25T19:45:51.887Z,100394.58
2019-04-25T19:48:59.259Z,100398.20
2019-04-25T19:52:06.611Z,100392.83
2019-04-25T19:55:29.408Z,100398.20
2019-04-25T19:58:36.580Z,100396.84
2019-04-25T20:01:55.074Z,100391.02
2019-04-25T20:05:35.140Z,100384.72
2019-04-25T20:08:51.479Z,100381.59
2019-04-25T20:11:58.798Z,100372.98
2019-04-25T20:15:06.486Z,100381.67
2019-04-25T20:18:13.727Z,100374.44
2019-04-25T20:21:20.867Z,100377.67
2019-04-25T20:24:27.999Z,100381.73
2019-04-25T20:27:35.230Z,100381.78
2019-04-25T20:30:42.550Z,100378.95
2019-04-25T20:34:02.306Z,100378.84
2019-04-25T20:36:58.662Z,100377.47
2019-04-25T20:40:06.936Z,100377.04
2019-04-25T20:43:14.189Z,100377.27
2019-04-25T20:46:21.411Z,100373.28
2019-04-25T20:49:28.635Z,100361.67
2019-04-25T20:52:38.083Z,100363.77
2019-04-25T20:55:44.919Z,100363.52
2019-04-25T20:58:52.167Z,100356.52
2019-04-25T21:01:59.467Z,100358.70
2019-04-25T21:05:07.096Z,100358.17
2019-04-25T21:08:13.819Z,100357.58
2019-04-25T21:11:21.133Z,100353.09
2019-04-25T21:14:46.512Z,100343.80
2019-04-25T21:18:18.120Z,100335.70
2019-04-25T21:21:25.370Z,100335.70
2019-04-25T21:24:32.573Z,100341.38
2019-04-25T21:27:39.800Z,100337.39
2019-04-25T21:30:47.181Z,100343.98
2019-04-25T21:33:55.254Z,100347.09
2019-04-25T21:37:05.817Z,100347.09
2019-04-25T21:40:20.842Z,100345.01
2019-04-25T21:43:30.674Z,100348.41
2019-04-25T21:46:38.183Z,100341.99
2019-04-25T21:49:54.909Z,100338.22
2019-04-25T21:53:03.223Z,100340.66
2019-04-25T21:56:09.713Z,100343.80
2019-04-25T21:59:26.093Z,100336.53
2019-04-25T22:02:42.927Z,100336.02
2019-04-25T22:05:51.217Z,100328.67
2019-04-25T22:08:58.755Z,100330.10
2019-04-25T22:12:07.232Z,100331.66
2019-04-25T22:15:14.511Z,100331.75
2019-04-25T22:18:21.819Z,100327.71
2019-04-25T22:21:37.948Z,100323.02
2019-04-25T22:24:37.992Z,100312.20
2019-04-25T22:27:45.597Z,100315.82
2019-04-25T22:31:05.550Z,100314.62
2019-04-25T22:34:30.205Z,100309.21
2019-04-25T22:37:37.547Z,100309.91
2019-04-25T22:40:54.362Z,100314.71
2019-04-25T22:44:13.098Z,100309.21
2019-04-25T22:47:19.377Z,100311.98
2019-04-25T22:50:26.716Z,100312.81
2019-04-25T22:53:34.009Z,100314.23
2019-04-25T22:56:41.299Z,100315.98
2019-04-25T22:59:48.876Z,100312.33
2019-04-25T23:03:13.577Z,100306.69
2019-04-25T23:06:20.897Z,100315.18
2019-04-25T23:09:29.829Z,100306.11
2019-04-25T23:12:37.310Z,100302.45
2019-04-25T23:15:54.107Z,100306.58
2019-04-25T23:19:11.264Z,100297.04
2019-04-25T23:22:18.775Z,100296.92
2019-04-25T23:25:32.168Z,100297.98
2019-04-25T23:28:57.536Z,100293.17
2019-04-25T23:32:05.782Z,100294.23
2019-04-25T23:35:23.481Z,100289.28
2019-04-25T23:38:22.801Z,100289.52
2019-04-25T23:41:30.100Z,100290.45
2019-04-25T23:44:46.835Z,100291.25
2019-04-25T23:47:54.146Z,100296.45
2019-04-25T23:51:17.454Z,100288.09
2019-04-25T23:54:25.042Z,100287.96
2019-04-25T23:57:32.708Z,100290.56
